This is the latest recevied weather packets stored in our database for station/object AG1T-20. If no packets are shown the sender has not sent any weather packets the latest 10 day(s).
| Time | Temp. | Humidity | Pressure | Rain* | Wind** | Luminosity | Snow |
|---|---|---|---|---|---|---|---|
| 1787374805 | 26.11° C | 36% | 1022.3 hPa | 0 mm | - | 0 W/m² | - |
| 1787374205 | 25.56° C | 37% | 1022.2 hPa | 0 mm | - | 0 W/m² | - |
| 1787373604 | 25.56° C | 39% | 1022.2 hPa | 0 mm | - | 0 W/m² | - |
| 1787373004 | 25.56° C | 39% | 1022.2 hPa | 0 mm | - | 0 W/m² | - |
| 1787372404 | 25.56° C | 40% | 1022.2 hPa | 0 mm | - | 0 W/m² | - |
| 1787371804 | 25° C | 41% | 1022.2 hPa | 0 mm | - | 0 W/m² | - |
| 1787371205 | 25.56° C | 40% | 1022.2 hPa | 0 mm | - | 0 W/m² | - |
| 1787370604 | 26.11° C | 39% | 1022.1 hPa | 0 mm | - | 0 W/m² | - |
| 1787370005 | 26.11° C | 37% | 1022.1 hPa | 0 mm | - | 0 W/m² | - |
| 1787369405 | 26.67° C | 37% | 1022.1 hPa | 0 mm | - | 0 W/m² | - |
| 1787368804 | 26.67° C | 37% | 1022.1 hPa | 0 mm | - | 0 W/m² | - |
| 1787368204 | 26.67° C | 37% | 1022.1 hPa | 0 mm | - | 0 W/m² | - |
| 1787367604 | 27.22° C | 36% | 1022.1 hPa | 0 mm | - | 0 W/m² | - |
| 1787367004 | 26.67° C | 37% | 1023.1 hPa | 0 mm | - | 0 W/m² | - |
| 1787366405 | 26.67° C | 38% | 1023.1 hPa | 0 mm | - | 0 W/m² | - |
| 1787365804 | 26.67° C | 39% | 1023.1 hPa | 0 mm | - | 0 W/m² | - |
| 1787365204 | 27.78° C | 34% | 1023.1 hPa | 0 mm | - | 0 W/m² | - |
| 1787364604 | 27.78° C | 33% | 1023.1 hPa | 0 mm | - | 3 W/m² | - |
| 1787364005 | 27.78° C | 34% | 1023.1 hPa | 0 mm | - | 7 W/m² | - |
| 1787363404 | 27.22° C | 35% | 1023.2 hPa | 0 mm | - | 5 W/m² | - |
| 1787362804 | 27.78° C | 35% | 1023.2 hPa | 0 mm | - | 6 W/m² | - |
| 1787362204 | 27.78° C | 34% | 1023.2 hPa | 0 mm | - | 7 W/m² | - |
| 1787361604 | 27.78° C | 35% | 1023.2 hPa | 0 mm | - | 7 W/m² | - |
| 1787361005 | 26.67° C | 40% | 1023.2 hPa | 0 mm | - | 11 W/m² | - |
| 1787360404 | 27.78° C | 38% | 1023.2 hPa | 0 mm | - | 19 W/m² | - |
* Rain latest hour (hover to see other rain measurements)
** Current wind speed in m/s (hover to see current wind gust speed)